sensor_id;sensor_type;location;lat;lon;timestamp;temperature;humidity
10282;DHT22;5186;59.472;18.048;2023-03-04T00:01:08;2.10;99.90
10282;DHT22;5186;59.472;18.048;2023-03-04T00:03:34;2.00;99.90
10282;DHT22;5186;59.472;18.048;2023-03-04T00:06:01;2.00;99.90
10282;DHT22;5186;59.472;18.048;2023-03-04T00:08:27;2.00;99.90
10282;DHT22;5186;59.472;18.048;2023-03-04T00:10:52;1.90;99.90
10282;DHT22;5186;59.472;18.048;2023-03-04T00:13:18;1.90;99.90
10282;DHT22;5186;59.472;18.048;2023-03-04T00:15:46;1.90;99.90
10282;DHT22;5186;59.472;18.048;2023-03-04T00:18:12;1.90;99.90
10282;DHT22;5186;59.472;18.048;2023-03-04T00:20:38;1.90;99.90
10282;DHT22;5186;59.472;18.048;2023-03-04T00:23:03;1.80;99.90
10282;DHT22;5186;59.472;18.048;2023-03-04T00:25:29;1.80;99.90
10282;DHT22;5186;59.472;18.048;2023-03-04T00:27:54;1.80;99.90
10282;DHT22;5186;59.472;18.048;2023-03-04T00:30:20;1.70;99.90
10282;DHT22;5186;59.472;18.048;2023-03-04T00:32:46;1.80;99.90
10282;DHT22;5186;59.472;18.048;2023-03-04T00:35:11;1.70;99.90
10282;DHT22;5186;59.472;18.048;2023-03-04T00:37:37;1.70;99.90
10282;DHT22;5186;59.472;18.048;2023-03-04T00:40:03;1.70;99.90
10282;DHT22;5186;59.472;18.048;2023-03-04T00:42:28;1.70;99.90
10282;DHT22;5186;59.472;18.048;2023-03-04T00:44:54;1.60;99.90
10282;DHT22;5186;59.472;18.048;2023-03-04T00:47:19;1.60;99.90
10282;DHT22;5186;59.472;18.048;2023-03-04T00:49:45;1.60;99.90
10282;DHT22;5186;59.472;18.048;2023-03-04T00:52:10;1.50;99.90
10282;DHT22;5186;59.472;18.048;2023-03-04T00:54:36;1.50;99.90
10282;DHT22;5186;59.472;18.048;2023-03-04T00:57:02;1.50;99.90
10282;DHT22;5186;59.472;18.048;2023-03-04T00:59:27;1.50;99.90
10282;DHT22;5186;59.472;18.048;2023-03-04T01:01:53;1.50;99.90
10282;DHT22;5186;59.472;18.048;2023-03-04T01:04:19;1.50;99.90
10282;DHT22;5186;59.472;18.048;2023-03-04T01:06:44;1.40;99.90
10282;DHT22;5186;59.472;18.048;2023-03-04T01:09:10;1.40;99.90
10282;DHT22;5186;59.472;18.048;2023-03-04T01:11:35;1.40;99.90
10282;DHT22;5186;59.472;18.048;2023-03-04T01:14:01;1.40;99.90
10282;DHT22;5186;59.472;18.048;2023-03-04T01:16:27;1.40;99.90
10282;DHT22;5186;59.472;18.048;2023-03-04T01:18:52;1.40;99.90
10282;DHT22;5186;59.472;18.048;2023-03-04T01:21:18;1.40;99.90
10282;DHT22;5186;59.472;18.048;2023-03-04T01:23:43;1.30;99.90
10282;DHT22;5186;59.472;18.048;2023-03-04T01:26:09;1.30;99.90
10282;DHT22;5186;59.472;18.048;2023-03-04T01:28:34;1.30;99.90
10282;DHT22;5186;59.472;18.048;2023-03-04T01:31:01;1.30;99.90
10282;DHT22;5186;59.472;18.048;2023-03-04T01:33:27;1.30;99.90
10282;DHT22;5186;59.472;18.048;2023-03-04T01:35:53;1.20;99.90
10282;DHT22;5186;59.472;18.048;2023-03-04T01:38:18;1.30;99.90
10282;DHT22;5186;59.472;18.048;2023-03-04T01:40:44;1.20;99.90
10282;DHT22;5186;59.472;18.048;2023-03-04T01:43:23;1.20;99.90
10282;DHT22;5186;59.472;18.048;2023-03-04T01:45:50;1.00;99.90
10282;DHT22;5186;59.472;18.048;2023-03-04T01:48:24;1.00;99.90
10282;DHT22;5186;59.472;18.048;2023-03-04T01:50:50;1.00;99.90
10282;DHT22;5186;59.472;18.048;2023-03-04T01:53:25;1.00;99.90
10282;DHT22;5186;59.472;18.048;2023-03-04T01:55:53;1.00;99.90
10282;DHT22;5186;59.472;18.048;2023-03-04T01:58:19;0.90;99.90
10282;DHT22;5186;59.472;18.048;2023-03-04T02:00:45;0.90;99.90
10282;DHT22;5186;59.472;18.048;2023-03-04T02:03:13;0.90;99.90
10282;DHT22;5186;59.472;18.048;2023-03-04T02:05:42;0.90;99.90
10282;DHT22;5186;59.472;18.048;2023-03-04T02:08:09;0.90;99.90
10282;DHT22;5186;59.472;18.048;2023-03-04T02:10:35;0.90;99.90
10282;DHT22;5186;59.472;18.048;2023-03-04T02:13:01;0.80;99.90
10282;DHT22;5186;59.472;18.048;2023-03-04T02:15:28;0.80;99.90
10282;DHT22;5186;59.472;18.048;2023-03-04T02:17:55;0.80;99.90
10282;DHT22;5186;59.472;18.048;2023-03-04T02:20:32;0.90;99.90
10282;DHT22;5186;59.472;18.048;2023-03-04T02:23:43;0.80;99.90
10282;DHT22;5186;59.472;18.048;2023-03-04T02:26:16;0.80;99.90
10282;DHT22;5186;59.472;18.048;2023-03-04T02:28:42;0.70;99.90
10282;DHT22;5186;59.472;18.048;2023-03-04T02:33:45;0.70;99.90
10282;DHT22;5186;59.472;18.048;2023-03-04T02:36:10;0.70;99.90
10282;DHT22;5186;59.472;18.048;2023-03-04T02:38:36;0.70;99.90
10282;DHT22;5186;59.472;18.048;2023-03-04T02:41:02;0.60;99.90
10282;DHT22;5186;59.472;18.048;2023-03-04T02:43:29;0.60;99.90
10282;DHT22;5186;59.472;18.048;2023-03-04T02:45:54;0.60;99.90
10282;DHT22;5186;59.472;18.048;2023-03-04T02:48:21;0.60;99.90
10282;DHT22;5186;59.472;18.048;2023-03-04T02:50:50;0.60;99.90
10282;DHT22;5186;59.472;18.048;2023-03-04T02:53:17;0.60;99.90
10282;DHT22;5186;59.472;18.048;2023-03-04T02:55:43;0.60;99.90
10282;DHT22;5186;59.472;18.048;2023-03-04T02:58:10;0.60;99.90
10282;DHT22;5186;59.472;18.048;2023-03-04T03:00:36;0.60;99.90
10282;DHT22;5186;59.472;18.048;2023-03-04T03:03:02;0.50;99.90
10282;DHT22;5186;59.472;18.048;2023-03-04T03:05:29;0.50;99.90
10282;DHT22;5186;59.472;18.048;2023-03-04T03:07:56;0.60;99.90
10282;DHT22;5186;59.472;18.048;2023-03-04T03:10:22;0.50;99.90
10282;DHT22;5186;59.472;18.048;2023-03-04T03:12:47;0.50;99.90
10282;DHT22;5186;59.472;18.048;2023-03-04T03:15:13;0.50;99.90
10282;DHT22;5186;59.472;18.048;2023-03-04T03:17:39;0.50;99.90
10282;DHT22;5186;59.472;18.048;2023-03-04T03:20:05;0.40;99.90
10282;DHT22;5186;59.472;18.048;2023-03-04T03:22:30;0.40;99.90
10282;DHT22;5186;59.472;18.048;2023-03-04T03:24:56;0.30;99.90
10282;DHT22;5186;59.472;18.048;2023-03-04T03:27:22;0.30;99.90
10282;DHT22;5186;59.472;18.048;2023-03-04T03:29:47;0.30;99.90
10282;DHT22;5186;59.472;18.048;2023-03-04T03:32:13;0.20;99.90
10282;DHT22;5186;59.472;18.048;2023-03-04T03:34:38;0.20;99.90
10282;DHT22;5186;59.472;18.048;2023-03-04T03:37:04;0.20;99.90
10282;DHT22;5186;59.472;18.048;2023-03-04T03:39:29;0.10;99.90
10282;DHT22;5186;59.472;18.048;2023-03-04T03:41:55;0.10;99.90
10282;DHT22;5186;59.472;18.048;2023-03-04T03:44:21;0.10;99.90
10282;DHT22;5186;59.472;18.048;2023-03-04T03:46:46;0.10;99.90
10282;DHT22;5186;59.472;18.048;2023-03-04T03:49:12;0.00;99.90
10282;DHT22;5186;59.472;18.048;2023-03-04T03:51:37;0.00;99.90
10282;DHT22;5186;59.472;18.048;2023-03-04T03:54:03;-0.10;99.90
10282;DHT22;5186;59.472;18.048;2023-03-04T03:56:34;-0.10;99.90
10282;DHT22;5186;59.472;18.048;2023-03-04T03:59:00;-0.10;99.90
10282;DHT22;5186;59.472;18.048;2023-03-04T04:01:25;-0.20;99.90
10282;DHT22;5186;59.472;18.048;2023-03-04T04:03:51;-0.20;99.90
10282;DHT22;5186;59.472;18.048;2023-03-04T04:06:16;-0.20;99.90
10282;DHT22;5186;59.472;18.048;2023-03-04T04:08:42;-0.20;99.90
10282;DHT22;5186;59.472;18.048;2023-03-04T04:11:11;-0.20;99.90
10282;DHT22;5186;59.472;18.048;2023-03-04T04:13:37;-0.30;99.90
10282;DHT22;5186;59.472;18.048;2023-03-04T04:16:04;-0.30;99.90
10282;DHT22;5186;59.472;18.048;2023-03-04T04:18:30;-0.30;99.90
10282;DHT22;5186;59.472;18.048;2023-03-04T04:20:55;-0.30;99.90
10282;DHT22;5186;59.472;18.048;2023-03-04T04:23:21;-0.30;99.90
10282;DHT22;5186;59.472;18.048;2023-03-04T04:25:47;-0.30;99.90
10282;DHT22;5186;59.472;18.048;2023-03-04T04:28:13;-0.40;99.90
10282;DHT22;5186;59.472;18.048;2023-03-04T04:30:38;-0.50;99.90
10282;DHT22;5186;59.472;18.048;2023-03-04T04:33:04;-0.50;99.90
10282;DHT22;5186;59.472;18.048;2023-03-04T04:35:34;-0.50;99.90
10282;DHT22;5186;59.472;18.048;2023-03-04T04:38:01;-0.60;99.90
10282;DHT22;5186;59.472;18.048;2023-03-04T04:40:26;-0.60;99.90
10282;DHT22;5186;59.472;18.048;2023-03-04T04:42:52;-0.60;99.90
10282;DHT22;5186;59.472;18.048;2023-03-04T04:45:17;-0.70;99.90
10282;DHT22;5186;59.472;18.048;2023-03-04T04:47:43;-0.70;99.90
10282;DHT22;5186;59.472;18.048;2023-03-04T04:50:09;-0.70;99.90
10282;DHT22;5186;59.472;18.048;2023-03-04T04:52:35;-0.70;99.90
10282;DHT22;5186;59.472;18.048;2023-03-04T04:55:01;-0.70;99.90
10282;DHT22;5186;59.472;18.048;2023-03-04T04:57:26;-0.80;99.90
10282;DHT22;5186;59.472;18.048;2023-03-04T04:59:52;-0.80;99.90
10282;DHT22;5186;59.472;18.048;2023-03-04T05:02:18;-0.80;99.90
10282;DHT22;5186;59.472;18.048;2023-03-04T05:04:44;-0.90;99.90
10282;DHT22;5186;59.472;18.048;2023-03-04T05:07:09;-0.80;99.90
10282;DHT22;5186;59.472;18.048;2023-03-04T05:09:35;-0.90;99.90
10282;DHT22;5186;59.472;18.048;2023-03-04T05:12:00;-0.90;99.90
10282;DHT22;5186;59.472;18.048;2023-03-04T05:14:26;-1.00;99.90
10282;DHT22;5186;59.472;18.048;2023-03-04T05:16:51;-0.90;99.90
10282;DHT22;5186;59.472;18.048;2023-03-04T05:19:18;-1.00;99.90
10282;DHT22;5186;59.472;18.048;2023-03-04T05:21:44;-1.00;99.90
10282;DHT22;5186;59.472;18.048;2023-03-04T05:24:09;-1.00;99.90
10282;DHT22;5186;59.472;18.048;2023-03-04T05:26:35;-1.00;99.90
10282;DHT22;5186;59.472;18.048;2023-03-04T05:29:01;-1.00;99.90
10282;DHT22;5186;59.472;18.048;2023-03-04T05:31:27;-1.10;99.90
10282;DHT22;5186;59.472;18.048;2023-03-04T05:33:52;-1.10;99.90
10282;DHT22;5186;59.472;18.048;2023-03-04T05:36:20;-1.00;99.90
10282;DHT22;5186;59.472;18.048;2023-03-04T05:38:45;-1.00;99.90
10282;DHT22;5186;59.472;18.048;2023-03-04T05:41:11;-1.00;99.90
10282;DHT22;5186;59.472;18.048;2023-03-04T05:43:36;-1.10;99.90
10282;DHT22;5186;59.472;18.048;2023-03-04T05:46:07;-1.10;99.90
10282;DHT22;5186;59.472;18.048;2023-03-04T05:48:33;-1.10;99.90
10282;DHT22;5186;59.472;18.048;2023-03-04T05:51:00;-1.10;99.90
10282;DHT22;5186;59.472;18.048;2023-03-04T05:53:27;-1.10;99.90
10282;DHT22;5186;59.472;18.048;2023-03-04T05:55:53;-1.20;99.90
10282;DHT22;5186;59.472;18.048;2023-03-04T05:58:19;-1.20;99.90
10282;DHT22;5186;59.472;18.048;2023-03-04T06:00:45;-1.20;99.90
10282;DHT22;5186;59.472;18.048;2023-03-04T06:03:19;-1.30;99.90
10282;DHT22;5186;59.472;18.048;2023-03-04T06:05:45;-1.20;99.90
10282;DHT22;5186;59.472;18.048;2023-03-04T06:08:12;-1.30;99.90
10282;DHT22;5186;59.472;18.048;2023-03-04T06:10:39;-1.30;99.90
10282;DHT22;5186;59.472;18.048;2023-03-04T06:13:05;-1.30;99.90
10282;DHT22;5186;59.472;18.048;2023-03-04T06:15:31;-1.20;99.90
10282;DHT22;5186;59.472;18.048;2023-03-04T06:17:56;-1.30;99.90
10282;DHT22;5186;59.472;18.048;2023-03-04T06:20:22;-1.20;99.90
10282;DHT22;5186;59.472;18.048;2023-03-04T06:22:48;-1.30;99.90
10282;DHT22;5186;59.472;18.048;2023-03-04T06:25:13;-1.30;99.90
10282;DHT22;5186;59.472;18.048;2023-03-04T06:27:39;-1.30;99.90
10282;DHT22;5186;59.472;18.048;2023-03-04T06:30:05;-1.30;99.90
10282;DHT22;5186;59.472;18.048;2023-03-04T06:32:31;-1.40;99.90
10282;DHT22;5186;59.472;18.048;2023-03-04T06:34:56;-1.40;99.90
10282;DHT22;5186;59.472;18.048;2023-03-04T06:37:22;-1.30;99.90
10282;DHT22;5186;59.472;18.048;2023-03-04T06:39:48;-1.30;99.90
10282;DHT22;5186;59.472;18.048;2023-03-04T06:42:13;-1.30;99.90
10282;DHT22;5186;59.472;18.048;2023-03-04T06:44:39;-1.30;99.90
10282;DHT22;5186;59.472;18.048;2023-03-04T06:47:05;-1.30;99.90
10282;DHT22;5186;59.472;18.048;2023-03-04T06:49:31;-1.30;99.90
10282;DHT22;5186;59.472;18.048;2023-03-04T06:51:56;-1.30;99.90
10282;DHT22;5186;59.472;18.048;2023-03-04T06:54:22;-1.30;99.90
10282;DHT22;5186;59.472;18.048;2023-03-04T06:56:48;-1.30;99.90
10282;DHT22;5186;59.472;18.048;2023-03-04T06:59:13;-1.30;99.90
10282;DHT22;5186;59.472;18.048;2023-03-04T07:01:39;-1.20;99.90
10282;DHT22;5186;59.472;18.048;2023-03-04T07:04:04;-1.20;99.90
10282;DHT22;5186;59.472;18.048;2023-03-04T07:06:30;-1.10;99.90
10282;DHT22;5186;59.472;18.048;2023-03-04T07:08:57;-1.10;99.90
10282;DHT22;5186;59.472;18.048;2023-03-04T07:11:23;-1.10;99.90
10282;DHT22;5186;59.472;18.048;2023-03-04T07:13:49;-1.00;99.90
10282;DHT22;5186;59.472;18.048;2023-03-04T07:16:18;-1.00;99.90
10282;DHT22;5186;59.472;18.048;2023-03-04T07:18:44;-1.00;99.90
10282;DHT22;5186;59.472;18.048;2023-03-04T07:21:10;-1.00;99.90
10282;DHT22;5186;59.472;18.048;2023-03-04T07:23:36;-0.90;99.90
10282;DHT22;5186;59.472;18.048;2023-03-04T07:26:03;-0.90;99.90
10282;DHT22;5186;59.472;18.048;2023-03-04T07:28:29;-1.00;99.90
10282;DHT22;5186;59.472;18.048;2023-03-04T07:30:54;-1.00;99.90
10282;DHT22;5186;59.472;18.048;2023-03-04T07:33:20;-1.00;99.90
10282;DHT22;5186;59.472;18.048;2023-03-04T07:35:46;-1.00;99.90
10282;DHT22;5186;59.472;18.048;2023-03-04T07:38:11;-1.00;99.90
10282;DHT22;5186;59.472;18.048;2023-03-04T07:40:37;-0.90;99.90
10282;DHT22;5186;59.472;18.048;2023-03-04T07:43:03;-0.90;99.90
10282;DHT22;5186;59.472;18.048;2023-03-04T07:45:29;-0.90;99.90
10282;DHT22;5186;59.472;18.048;2023-03-04T07:47:57;-0.90;99.90
10282;DHT22;5186;59.472;18.048;2023-03-04T07:50:23;-0.80;99.90
10282;DHT22;5186;59.472;18.048;2023-03-04T07:52:48;-0.80;99.90
10282;DHT22;5186;59.472;18.048;2023-03-04T07:55:18;-0.70;99.90
10282;DHT22;5186;59.472;18.048;2023-03-04T07:57:45;-0.70;99.90
10282;DHT22;5186;59.472;18.048;2023-03-04T08:00:13;-0.70;99.90
10282;DHT22;5186;59.472;18.048;2023-03-04T08:02:39;-0.70;99.90
10282;DHT22;5186;59.472;18.048;2023-03-04T08:05:05;-0.70;99.90
10282;DHT22;5186;59.472;18.048;2023-03-04T08:07:31;-0.70;99.90
10282;DHT22;5186;59.472;18.048;2023-03-04T08:09:57;-0.70;99.90
10282;DHT22;5186;59.472;18.048;2023-03-04T08:12:23;-0.70;99.90
10282;DHT22;5186;59.472;18.048;2023-03-04T08:14:50;-0.80;99.90
10282;DHT22;5186;59.472;18.048;2023-03-04T08:17:15;-0.70;99.90
10282;DHT22;5186;59.472;18.048;2023-03-04T08:19:41;-0.70;99.90
10282;DHT22;5186;59.472;18.048;2023-03-04T08:22:06;-0.70;99.90
10282;DHT22;5186;59.472;18.048;2023-03-04T08:24:32;-0.70;99.90
10282;DHT22;5186;59.472;18.048;2023-03-04T08:26:58;-0.70;99.90
10282;DHT22;5186;59.472;18.048;2023-03-04T08:29:24;-0.60;99.90
10282;DHT22;5186;59.472;18.048;2023-03-04T08:31:51;-0.60;99.90
10282;DHT22;5186;59.472;18.048;2023-03-04T08:34:20;-0.50;99.90
10282;DHT22;5186;59.472;18.048;2023-03-04T08:36:46;-0.50;99.90
10282;DHT22;5186;59.472;18.048;2023-03-04T08:39:13;-0.50;99.90
10282;DHT22;5186;59.472;18.048;2023-03-04T08:41:39;-0.40;99.90
10282;DHT22;5186;59.472;18.048;2023-03-04T08:44:05;-0.30;99.90
10282;DHT22;5186;59.472;18.048;2023-03-04T08:46:32;-0.30;99.90
10282;DHT22;5186;59.472;18.048;2023-03-04T08:48:58;-0.30;99.90
10282;DHT22;5186;59.472;18.048;2023-03-04T08:51:24;-0.30;99.90
10282;DHT22;5186;59.472;18.048;2023-03-04T08:53:50;-0.30;99.90
10282;DHT22;5186;59.472;18.048;2023-03-04T08:56:15;-0.20;99.90
10282;DHT22;5186;59.472;18.048;2023-03-04T08:58:41;-0.20;99.90
10282;DHT22;5186;59.472;18.048;2023-03-04T09:01:09;-0.20;99.90
10282;DHT22;5186;59.472;18.048;2023-03-04T09:03:34;-0.20;99.90
10282;DHT22;5186;59.472;18.048;2023-03-04T09:06:02;-0.20;99.90
10282;DHT22;5186;59.472;18.048;2023-03-04T09:08:28;-0.30;99.90
10282;DHT22;5186;59.472;18.048;2023-03-04T09:10:54;-0.20;99.90
10282;DHT22;5186;59.472;18.048;2023-03-04T09:13:21;-0.20;99.90
10282;DHT22;5186;59.472;18.048;2023-03-04T09:15:49;-0.20;99.90
10282;DHT22;5186;59.472;18.048;2023-03-04T09:18:16;-0.20;99.90
10282;DHT22;5186;59.472;18.048;2023-03-04T09:20:42;-0.20;99.90
10282;DHT22;5186;59.472;18.048;2023-03-04T09:23:08;-0.20;99.90
10282;DHT22;5186;59.472;18.048;2023-03-04T09:25:35;-0.20;99.90
10282;DHT22;5186;59.472;18.048;2023-03-04T09:28:01;-0.20;99.90
10282;DHT22;5186;59.472;18.048;2023-03-04T09:30:27;-0.10;99.90
10282;DHT22;5186;59.472;18.048;2023-03-04T09:32:53;-0.10;99.90
10282;DHT22;5186;59.472;18.048;2023-03-04T09:35:18;0.00;99.90
10282;DHT22;5186;59.472;18.048;2023-03-04T09:37:44;0.00;99.90
10282;DHT22;5186;59.472;18.048;2023-03-04T09:40:18;0.10;99.90
10282;DHT22;5186;59.472;18.048;2023-03-04T09:42:49;0.10;99.90
10282;DHT22;5186;59.472;18.048;2023-03-04T09:45:20;0.20;99.90
10282;DHT22;5186;59.472;18.048;2023-03-04T09:47:48;0.20;99.90
10282;DHT22;5186;59.472;18.048;2023-03-04T09:50:16;0.20;99.90
10282;DHT22;5186;59.472;18.048;2023-03-04T09:55:37;0.30;99.90
10282;DHT22;5186;59.472;18.048;2023-03-04T09:58:36;0.40;99.90
10282;DHT22;5186;59.472;18.048;2023-03-04T10:01:19;0.40;99.90
10282;DHT22;5186;59.472;18.048;2023-03-04T10:03:49;0.50;99.90
10282;DHT22;5186;59.472;18.048;2023-03-04T10:06:18;0.60;99.90
10282;DHT22;5186;59.472;18.048;2023-03-04T10:11:34;0.70;99.90
10282;DHT22;5186;59.472;18.048;2023-03-04T10:19:47;0.80;99.90
10282;DHT22;5186;59.472;18.048;2023-03-04T10:24:56;0.90;99.90
10282;DHT22;5186;59.472;18.048;2023-03-04T10:27:22;0.90;99.90
10282;DHT22;5186;59.472;18.048;2023-03-04T10:29:49;0.90;99.90
10282;DHT22;5186;59.472;18.048;2023-03-04T10:32:19;1.00;99.90
10282;DHT22;5186;59.472;18.048;2023-03-04T10:34:45;1.10;99.90
10282;DHT22;5186;59.472;18.048;2023-03-04T10:37:12;1.10;99.90
10282;DHT22;5186;59.472;18.048;2023-03-04T10:39:45;1.20;99.90
10282;DHT22;5186;59.472;18.048;2023-03-04T10:44:51;1.30;99.90
10282;DHT22;5186;59.472;18.048;2023-03-04T10:47:17;1.40;99.90
10282;DHT22;5186;59.472;18.048;2023-03-04T10:49:54;1.40;99.90
10282;DHT22;5186;59.472;18.048;2023-03-04T10:52:40;1.40;99.90
10282;DHT22;5186;59.472;18.048;2023-03-04T10:55:23;1.40;99.90
10282;DHT22;5186;59.472;18.048;2023-03-04T10:57:54;1.50;99.90
10282;DHT22;5186;59.472;18.048;2023-03-04T11:00:33;1.50;99.90
10282;DHT22;5186;59.472;18.048;2023-03-04T11:08:39;1.70;99.90
10282;DHT22;5186;59.472;18.048;2023-03-04T11:11:41;1.70;99.90
10282;DHT22;5186;59.472;18.048;2023-03-04T11:14:24;1.80;99.90
10282;DHT22;5186;59.472;18.048;2023-03-04T11:16:56;1.80;99.90
10282;DHT22;5186;59.472;18.048;2023-03-04T11:19:27;1.80;99.90
10282;DHT22;5186;59.472;18.048;2023-03-04T11:21:54;1.80;99.90
10282;DHT22;5186;59.472;18.048;2023-03-04T11:24:26;1.80;99.90
10282;DHT22;5186;59.472;18.048;2023-03-04T11:29:37;1.90;99.90
10282;DHT22;5186;59.472;18.048;2023-03-04T11:32:23;1.90;99.90
10282;DHT22;5186;59.472;18.048;2023-03-04T11:37:35;2.00;99.90
10282;DHT22;5186;59.472;18.048;2023-03-04T11:42:57;2.10;99.90
10282;DHT22;5186;59.472;18.048;2023-03-04T11:50:52;2.30;99.90
10282;DHT22;5186;59.472;18.048;2023-03-04T11:53:30;2.30;99.90
10282;DHT22;5186;59.472;18.048;2023-03-04T11:56:12;2.40;99.90
10282;DHT22;5186;59.472;18.048;2023-03-04T12:04:33;2.60;99.90
10282;DHT22;5186;59.472;18.048;2023-03-04T12:18:09;2.70;99.90
10282;DHT22;5186;59.472;18.048;2023-03-04T12:21:00;2.80;99.90
10282;DHT22;5186;59.472;18.048;2023-03-04T12:26:46;2.80;99.90
10282;DHT22;5186;59.472;18.048;2023-03-04T12:32:23;2.80;99.90
10282;DHT22;5186;59.472;18.048;2023-03-04T12:38:03;2.90;99.90
10282;DHT22;5186;59.472;18.048;2023-03-04T12:40:42;3.00;99.90
10282;DHT22;5186;59.472;18.048;2023-03-04T12:56:31;3.00;99.90
10282;DHT22;5186;59.472;18.048;2023-03-04T12:58:59;3.00;99.90
10282;DHT22;5186;59.472;18.048;2023-03-04T13:01:31;3.10;99.90
10282;DHT22;5186;59.472;18.048;2023-03-04T13:04:37;3.20;99.90
10282;DHT22;5186;59.472;18.048;2023-03-04T13:07:13;3.20;99.90
10282;DHT22;5186;59.472;18.048;2023-03-04T13:09:56;3.20;99.90
10282;DHT22;5186;59.472;18.048;2023-03-04T13:12:23;3.20;99.90
10282;DHT22;5186;59.472;18.048;2023-03-04T13:23:03;3.10;99.90
10282;DHT22;5186;59.472;18.048;2023-03-04T13:25:42;3.00;99.90
10282;DHT22;5186;59.472;18.048;2023-03-04T13:43:51;2.60;99.90
10282;DHT22;5186;59.472;18.048;2023-03-04T13:49:04;2.50;99.90
10282;DHT22;5186;59.472;18.048;2023-03-04T13:51:42;2.60;99.90
10282;DHT22;5186;59.472;18.048;2023-03-04T13:59:43;2.50;99.90
10282;DHT22;5186;59.472;18.048;2023-03-04T14:04:37;2.50;99.90
10282;DHT22;5186;59.472;18.048;2023-03-04T14:07:27;2.50;99.90
10282;DHT22;5186;59.472;18.048;2023-03-04T14:12:38;2.60;99.90
10282;DHT22;5186;59.472;18.048;2023-03-04T14:15:25;2.60;99.90
10282;DHT22;5186;59.472;18.048;2023-03-04T14:17:56;2.60;99.90
10282;DHT22;5186;59.472;18.048;2023-03-04T14:22:54;2.60;99.90
10282;DHT22;5186;59.472;18.048;2023-03-04T14:25:34;2.60;99.90
10282;DHT22;5186;59.472;18.048;2023-03-04T14:28:20;2.50;99.90
10282;DHT22;5186;59.472;18.048;2023-03-04T14:30:53;2.40;99.90
10282;DHT22;5186;59.472;18.048;2023-03-04T14:33:27;2.50;99.90
10282;DHT22;5186;59.472;18.048;2023-03-04T14:35:59;2.50;99.90
10282;DHT22;5186;59.472;18.048;2023-03-04T14:38:27;2.50;99.90
10282;DHT22;5186;59.472;18.048;2023-03-04T14:41:07;2.50;99.90
10282;DHT22;5186;59.472;18.048;2023-03-04T14:44:03;2.50;99.90
10282;DHT22;5186;59.472;18.048;2023-03-04T14:46:39;2.50;99.90
10282;DHT22;5186;59.472;18.048;2023-03-04T14:49:10;2.50;99.90
10282;DHT22;5186;59.472;18.048;2023-03-04T14:51:55;2.50;99.90
10282;DHT22;5186;59.472;18.048;2023-03-04T14:56:52;2.60;99.90
10282;DHT22;5186;59.472;18.048;2023-03-04T14:59:27;2.60;99.90
10282;DHT22;5186;59.472;18.048;2023-03-04T15:02:17;2.60;99.90
10282;DHT22;5186;59.472;18.048;2023-03-04T15:04:46;2.60;99.90
10282;DHT22;5186;59.472;18.048;2023-03-04T15:07:19;2.60;99.90
10282;DHT22;5186;59.472;18.048;2023-03-04T15:09:53;2.70;99.90
10282;DHT22;5186;59.472;18.048;2023-03-04T15:12:28;2.70;99.90
10282;DHT22;5186;59.472;18.048;2023-03-04T15:14:59;2.70;99.90
10282;DHT22;5186;59.472;18.048;2023-03-04T15:17:32;2.70;99.90
10282;DHT22;5186;59.472;18.048;2023-03-04T15:22:27;2.70;99.90
10282;DHT22;5186;59.472;18.048;2023-03-04T15:24:54;2.70;99.90
10282;DHT22;5186;59.472;18.048;2023-03-04T15:27:21;2.70;99.90
10282;DHT22;5186;59.472;18.048;2023-03-04T15:29:49;2.80;99.90
10282;DHT22;5186;59.472;18.048;2023-03-04T15:32:15;2.80;99.90
10282;DHT22;5186;59.472;18.048;2023-03-04T15:34:40;2.80;99.90
10282;DHT22;5186;59.472;18.048;2023-03-04T15:37:07;2.80;99.90
10282;DHT22;5186;59.472;18.048;2023-03-04T15:39:36;2.80;99.90
10282;DHT22;5186;59.472;18.048;2023-03-04T15:42:01;2.80;99.90
10282;DHT22;5186;59.472;18.048;2023-03-04T15:44:27;2.80;99.90
10282;DHT22;5186;59.472;18.048;2023-03-04T15:46:53;2.90;99.90
10282;DHT22;5186;59.472;18.048;2023-03-04T15:49:18;2.90;99.90
10282;DHT22;5186;59.472;18.048;2023-03-04T15:51:44;2.90;99.90
10282;DHT22;5186;59.472;18.048;2023-03-04T15:54:11;2.90;99.90
10282;DHT22;5186;59.472;18.048;2023-03-04T15:56:38;2.90;99.90
10282;DHT22;5186;59.472;18.048;2023-03-04T15:59:12;2.90;99.90
10282;DHT22;5186;59.472;18.048;2023-03-04T16:01:38;2.90;99.90
10282;DHT22;5186;59.472;18.048;2023-03-04T16:04:04;2.90;99.90
10282;DHT22;5186;59.472;18.048;2023-03-04T16:06:30;2.80;99.90
10282;DHT22;5186;59.472;18.048;2023-03-04T16:08:57;2.80;99.90
10282;DHT22;5186;59.472;18.048;2023-03-04T16:11:25;2.80;99.90
10282;DHT22;5186;59.472;18.048;2023-03-04T16:13:51;2.80;99.90
10282;DHT22;5186;59.472;18.048;2023-03-04T16:16:17;2.70;99.90
10282;DHT22;5186;59.472;18.048;2023-03-04T16:18:43;2.70;99.90
10282;DHT22;5186;59.472;18.048;2023-03-04T16:21:13;2.70;99.90
10282;DHT22;5186;59.472;18.048;2023-03-04T16:23:41;2.60;99.90
10282;DHT22;5186;59.472;18.048;2023-03-04T16:26:13;2.60;99.90
10282;DHT22;5186;59.472;18.048;2023-03-04T16:28:39;2.60;99.90
10282;DHT22;5186;59.472;18.048;2023-03-04T16:31:05;2.50;99.90
10282;DHT22;5186;59.472;18.048;2023-03-04T16:33:31;2.50;99.90
10282;DHT22;5186;59.472;18.048;2023-03-04T16:35:56;2.50;99.90
10282;DHT22;5186;59.472;18.048;2023-03-04T16:38:26;2.50;99.90
10282;DHT22;5186;59.472;18.048;2023-03-04T16:40:53;2.40;99.90
10282;DHT22;5186;59.472;18.048;2023-03-04T16:43:20;2.50;99.90
10282;DHT22;5186;59.472;18.048;2023-03-04T16:45:46;2.50;99.90
10282;DHT22;5186;59.472;18.048;2023-03-04T16:48:11;2.50;99.90
10282;DHT22;5186;59.472;18.048;2023-03-04T16:50:37;2.50;99.90
10282;DHT22;5186;59.472;18.048;2023-03-04T16:53:04;2.50;99.90
10282;DHT22;5186;59.472;18.048;2023-03-04T16:55:30;2.50;99.90
10282;DHT22;5186;59.472;18.048;2023-03-04T16:57:56;2.50;99.90
10282;DHT22;5186;59.472;18.048;2023-03-04T17:00:23;2.50;99.90
10282;DHT22;5186;59.472;18.048;2023-03-04T17:03:00;2.50;99.90
10282;DHT22;5186;59.472;18.048;2023-03-04T17:05:29;2.50;99.90
10282;DHT22;5186;59.472;18.048;2023-03-04T17:07:54;2.50;99.90
10282;DHT22;5186;59.472;18.048;2023-03-04T17:10:20;2.50;99.90
10282;DHT22;5186;59.472;18.048;2023-03-04T17:12:47;2.50;99.90
10282;DHT22;5186;59.472;18.048;2023-03-04T17:15:14;2.50;99.90
10282;DHT22;5186;59.472;18.048;2023-03-04T17:17:41;2.50;99.90
10282;DHT22;5186;59.472;18.048;2023-03-04T17:20:10;2.40;99.90
10282;DHT22;5186;59.472;18.048;2023-03-04T17:22:36;2.50;99.90
10282;DHT22;5186;59.472;18.048;2023-03-04T17:25:02;2.50;99.90
10282;DHT22;5186;59.472;18.048;2023-03-04T17:27:28;2.50;99.90
10282;DHT22;5186;59.472;18.048;2023-03-04T17:29:54;2.40;99.90
10282;DHT22;5186;59.472;18.048;2023-03-04T17:32:20;2.40;99.90
10282;DHT22;5186;59.472;18.048;2023-03-04T17:34:46;2.30;99.90
10282;DHT22;5186;59.472;18.048;2023-03-04T17:37:12;2.40;99.90
10282;DHT22;5186;59.472;18.048;2023-03-04T17:39:37;2.40;99.90
10282;DHT22;5186;59.472;18.048;2023-03-04T17:42:04;2.30;99.90
10282;DHT22;5186;59.472;18.048;2023-03-04T17:44:30;2.30;99.90
10282;DHT22;5186;59.472;18.048;2023-03-04T17:46:56;2.30;99.90
10282;DHT22;5186;59.472;18.048;2023-03-04T17:49:22;2.20;99.90